Strona główna
METAR-TAF:

METAR-TAF

Lotnisko :

Port lotniczy Frankfurt-Hahn

Hahn, Niemcy

Szerokość geograficzna: 49-57N, Długość geograficzna: 007-16E, wysokość: 491 m

Aktualna obserwacja pogody

Raport powstał 34 minut temu, godzina 07:50 UTC
Wiatr 7 kt od północny wschód, zmienny między północno-północny zachód i południowy wschód
Temperatura 14°C
Wilgotność 67%
Ciśnienie 1031 hPa
Widzialność 10 km lub więcej
Brak chmur poniżej 1500 m i brak chmur cumulonimbus

METAR: EDFH 280750Z 05007KT 340V140 CAVOK 14/08 Q1031

czas: 10:24 (08:24 UTC)

Prognoza

Raport powstał 3 godziny i 24 minut temu, godzina 05:00 UTC
Prognoza ważna od 28 godzina 06 UTC do 29 godzina 06 UTC
Wiatr 10 kt od północny wschód
Widzialność 10 km lub więcej
Brak chmur poniżej 1500 m i brak chmur cumulonimbus

TAF: EDFH 280500Z 2806/2906 04010KT CAVOK

Obserwacja i prognoza pogody dla ponad 4000 lotnisk (raport METAR i TAF).

Dostępne stacje oznaczono żółtymi i czerwonymi punktami na mapie.

Najedź kursorem aby zobaczyć nazwę stacji.

Kliknij aby zobaczyć obserwacje i prognozy pogody.

Aby zmienić mapę: kliknij na zielony przycisk z czarnym krzyżykiem, aby powiększyć; na zielony przycisk z myślnikiem, aby pomniejszyć; na zielone strzałki, aby przejść do map sąsiednich.


METAR-TAF: